createdAt,value
2018-12-21T00:00:03.191Z,1008.18
2018-12-21T00:01:13.144Z,1008.24
2018-12-21T00:02:22.838Z,1008.19
2018-12-21T00:03:32.789Z,1008.21
2018-12-21T00:04:42.482Z,1008.2
2018-12-21T00:05:52.419Z,1008.19
2018-12-21T00:07:02.355Z,1008.12
2018-12-21T00:08:12.040Z,1008.19
2018-12-21T00:09:21.994Z,1008.15
2018-12-21T00:10:31.933Z,1008.2
2018-12-21T00:11:41.684Z,1008.21
2018-12-21T00:12:51.641Z,1008.11
2018-12-21T00:14:01.337Z,1008.18
2018-12-21T00:15:11.073Z,1008.16
2018-12-21T00:16:21.010Z,1008.16
2018-12-21T00:17:34.392Z,1008.13
2018-12-21T00:18:44.389Z,1008.12
2018-12-21T00:19:54.333Z,1008.07
2018-12-21T00:21:04.363Z,1008.06
2018-12-21T00:22:22.202Z,1008.07
2018-12-21T00:23:32.154Z,1008.11
2018-12-21T00:24:42.116Z,1008.08
2018-12-21T00:25:52.057Z,1008.1
2018-12-21T00:27:01.510Z,1008.08
2018-12-21T00:28:11.457Z,1008.05
2018-12-21T00:29:21.387Z,1008.06
2018-12-21T00:30:31.333Z,1008.08
2018-12-21T00:31:41.004Z,1008.07
2018-12-21T00:32:50.955Z,1008.06
2018-12-21T00:34:00.893Z,1008.03
2018-12-21T00:35:10.670Z,1008.01
2018-12-21T00:36:20.356Z,1008.06
2018-12-21T00:37:29.535Z,1008
2018-12-21T00:38:39.477Z,1007.99
2018-12-21T00:39:48.939Z,1008.01
2018-12-21T00:40:58.884Z,1007.94
2018-12-21T00:42:08.851Z,1007.95
2018-12-21T00:43:18.549Z,1007.92
2018-12-21T00:44:28.240Z,1007.93
2018-12-21T00:45:38.181Z,1007.96
2018-12-21T00:46:48.124Z,1007.99
2018-12-21T00:47:57.835Z,1007.99
2018-12-21T00:49:07.794Z,1007.94
2018-12-21T00:50:17.730Z,1007.92
2018-12-21T00:51:30.255Z,1007.95
2018-12-21T00:52:40.392Z,1007.98
2018-12-21T00:53:50.070Z,1007.94
2018-12-21T00:55:00.010Z,1007.95
2018-12-21T00:56:09.934Z,1007.98
2018-12-21T00:57:19.876Z,1007.93
2018-12-21T00:58:29.568Z,1007.97
2018-12-21T00:59:39.514Z,1007.94
2018-12-21T01:00:49.476Z,1008
2018-12-21T01:01:59.162Z,1008.02
2018-12-21T01:03:08.615Z,1008.03
2018-12-21T01:04:18.302Z,1008.08
2018-12-21T01:05:28.238Z,1008.06
2018-12-21T01:06:38.186Z,1008.05
2018-12-21T01:07:47.876Z,1008.07
2018-12-21T01:08:57.842Z,1008.07
2018-12-21T01:10:07.800Z,1008.1
2018-12-21T01:11:17.538Z,1008.14
2018-12-21T01:12:27.501Z,1008.11
2018-12-21T01:13:37.439Z,1008.13
2018-12-21T01:14:47.380Z,1008.14
2018-12-21T01:15:57.328Z,1008.15
2018-12-21T01:17:07.255Z,1008.18
2018-12-21T01:18:17.207Z,1008.12
2018-12-21T01:19:27.155Z,1008.15
2018-12-21T01:20:37.084Z,1008.13
2018-12-21T01:21:46.778Z,1008.15
2018-12-21T01:22:56.718Z,1008.12
2018-12-21T01:24:06.397Z,1008.1
2018-12-21T01:25:15.837Z,1008.14
2018-12-21T01:26:25.534Z,1008.13
2018-12-21T01:27:35.575Z,1008.15
2018-12-21T01:28:45.256Z,1008.12
2018-12-21T01:29:54.944Z,1008.09
2018-12-21T01:31:04.632Z,1008.07
2018-12-21T01:32:14.576Z,1008.1
2018-12-21T01:33:24.256Z,1008.13
2018-12-21T01:34:33.934Z,1008.09
2018-12-21T01:35:43.683Z,1008.01
2018-12-21T01:36:53.612Z,1007.99
2018-12-21T01:38:03.302Z,1008
2018-12-21T01:39:13.252Z,1008.05
2018-12-21T01:40:23.196Z,1007.95
2018-12-21T01:41:33.149Z,1007.88
2018-12-21T01:42:43.080Z,1007.91
2018-12-21T01:43:53.001Z,1007.92
2018-12-21T01:45:02.680Z,1007.89
2018-12-21T01:46:12.109Z,1007.86
2018-12-21T01:47:22.039Z,1007.89
2018-12-21T01:48:31.709Z,1007.93
2018-12-21T01:49:41.377Z,1007.94
2018-12-21T01:50:51.324Z,1007.91
2018-12-21T01:52:01.011Z,1007.9
2018-12-21T01:53:10.942Z,1007.87
2018-12-21T01:54:20.876Z,1007.91
2018-12-21T01:55:30.840Z,1007.87
2018-12-21T01:56:40.767Z,1007.85
2018-12-21T01:57:50.448Z,1007.86
2018-12-21T01:59:00.130Z,1007.84
2018-12-21T02:00:10.065Z,1007.86
2018-12-21T02:01:19.758Z,1007.83
2018-12-21T02:02:29.700Z,1007.78
2018-12-21T02:03:39.406Z,1007.76
2018-12-21T02:04:48.854Z,1007.75
2018-12-21T02:05:58.805Z,1007.76
2018-12-21T02:07:08.747Z,1007.74
2018-12-21T02:08:18.681Z,1007.77
2018-12-21T02:09:28.610Z,1007.76
2018-12-21T02:10:38.552Z,1007.77
2018-12-21T02:11:48.480Z,1007.75
2018-12-21T02:12:58.408Z,1007.72
2018-12-21T02:14:07.838Z,1007.71
2018-12-21T02:15:17.517Z,1007.7
2018-12-21T02:16:27.022Z,1007.68
2018-12-21T02:17:36.698Z,1007.67
2018-12-21T02:18:46.135Z,1007.65
2018-12-21T02:19:56.130Z,1007.64
2018-12-21T02:21:06.078Z,1007.64
2018-12-21T02:22:15.998Z,1007.62
2018-12-21T02:23:25.919Z,1007.63
2018-12-21T02:24:35.598Z,1007.6
2018-12-21T02:25:45.549Z,1007.55
2018-12-21T02:26:55.487Z,1007.62
2018-12-21T02:28:05.168Z,1007.57
2018-12-21T02:29:14.868Z,1007.5
2018-12-21T02:30:24.581Z,1007.57
2018-12-21T02:31:34.261Z,1007.56
2018-12-21T02:32:43.956Z,1007.55
2018-12-21T02:33:53.898Z,1007.54
2018-12-21T02:35:03.833Z,1007.49
2018-12-21T02:36:13.287Z,1007.55
2018-12-21T02:37:23.273Z,1007.52
2018-12-21T02:38:32.956Z,1007.56
2018-12-21T02:39:42.891Z,1007.48
2018-12-21T02:40:52.832Z,1007.53
2018-12-21T02:42:02.536Z,1007.55
2018-12-21T02:43:12.220Z,1007.49
2018-12-21T02:44:21.894Z,1007.53
2018-12-21T02:45:31.881Z,1007.52
2018-12-21T02:46:41.940Z,1007.54
2018-12-21T02:47:51.631Z,1007.48
2018-12-21T02:49:01.072Z,1007.48
2018-12-21T02:50:10.759Z,1007.43
2018-12-21T02:51:20.435Z,1007.43
2018-12-21T02:52:30.108Z,1007.44
2018-12-21T02:53:39.790Z,1007.4
2018-12-21T02:54:49.725Z,1007.4
2018-12-21T02:55:59.167Z,1007.42
2018-12-21T02:57:08.848Z,1007.36
2018-12-21T02:58:18.781Z,1007.34
2018-12-21T02:59:28.577Z,1007.37
2018-12-21T03:00:38.258Z,1007.4
2018-12-21T03:01:48.188Z,1007.39
2018-12-21T03:02:58.107Z,1007.4
2018-12-21T03:04:08.052Z,1007.4
2018-12-21T03:05:17.997Z,1007.42
2018-12-21T03:06:27.944Z,1007.44
2018-12-21T03:07:37.887Z,1007.33
2018-12-21T03:08:48.187Z,1007.33
2018-12-21T03:09:57.891Z,1007.35
2018-12-21T03:11:07.830Z,1007.24
2018-12-21T03:12:17.268Z,1007.25
2018-12-21T03:13:27.237Z,1007.25
2018-12-21T03:14:36.926Z,1007.26
2018-12-21T03:15:46.880Z,1007.2
2018-12-21T03:16:56.816Z,1007.19
2018-12-21T03:18:06.753Z,1007.26
2018-12-21T03:19:16.708Z,1007.26
2018-12-21T03:20:26.156Z,1007.25
2018-12-21T03:21:35.729Z,1007.27
2018-12-21T03:22:45.426Z,1007.29
2018-12-21T03:23:55.467Z,1007.29
2018-12-21T03:25:05.411Z,1007.24
2018-12-21T03:26:15.363Z,1007.28
2018-12-21T03:27:25.305Z,1007.36
2018-12-21T03:28:34.993Z,1007.35
2018-12-21T03:29:44.686Z,1007.31
2018-12-21T03:30:54.625Z,1007.3
2018-12-21T03:32:04.616Z,1007.29
2018-12-21T03:33:14.614Z,1007.36
2018-12-21T03:34:24.863Z,1007.34
2018-12-21T03:35:34.352Z,1007.29
2018-12-21T03:36:44.052Z,1007.3
2018-12-21T03:37:53.743Z,1007.28
2018-12-21T03:39:03.444Z,1007.25
2018-12-21T03:40:13.377Z,1007.27
2018-12-21T03:41:23.177Z,1007.23
2018-12-21T03:42:32.612Z,1007.23
2018-12-21T03:43:42.563Z,1007.2
2018-12-21T03:44:52.260Z,1007.21
2018-12-21T03:46:02.209Z,1007.2
2018-12-21T03:47:11.892Z,1007.15
2018-12-21T03:48:21.837Z,1007.14
2018-12-21T03:49:31.575Z,1007.16
2018-12-21T03:50:41.601Z,1007.13
2018-12-21T03:51:51.555Z,1007.13
2018-12-21T03:53:01.234Z,1007.17
2018-12-21T03:54:11.184Z,1007.17
2018-12-21T03:55:21.132Z,1007.15
2018-12-21T03:56:31.067Z,1007.14
2018-12-21T03:57:41.002Z,1007.09
2018-12-21T03:58:50.940Z,1007.14
2018-12-21T04:00:00.888Z,1007.07
2018-12-21T04:01:10.585Z,1007.04
2018-12-21T04:02:20.929Z,1007.03
2018-12-21T04:03:31.039Z,1007.09
2018-12-21T04:04:40.983Z,1007.07
2018-12-21T04:05:50.684Z,1007.03
2018-12-21T04:06:59.873Z,1007.07
2018-12-21T04:08:09.855Z,1006.99
2018-12-21T04:09:19.794Z,1007.02
2018-12-21T04:10:29.502Z,1007.02
2018-12-21T04:11:39.742Z,1007.02
2018-12-21T04:12:49.194Z,1006.97
2018-12-21T04:13:58.397Z,1007
2018-12-21T04:15:08.098Z,1006.92
2018-12-21T04:16:17.540Z,1006.91
2018-12-21T04:17:27.235Z,1006.95
2018-12-21T04:18:37.178Z,1006.89
2018-12-21T04:19:47.129Z,1006.93
2018-12-21T04:20:56.827Z,1006.93
2018-12-21T04:22:06.783Z,1006.9
2018-12-21T04:23:16.731Z,1006.9
2018-12-21T04:24:26.419Z,1006.88
2018-12-21T04:25:36.351Z,1006.84
2018-12-21T04:26:46.050Z,1006.92
2018-12-21T04:27:56.003Z,1006.86
2018-12-21T04:29:05.950Z,1006.92
2018-12-21T04:30:15.745Z,1006.92
2018-12-21T04:31:25.432Z,1006.9
2018-12-21T04:32:34.868Z,1006.87
2018-12-21T04:33:44.560Z,1006.84
2018-12-21T04:34:54.269Z,1006.85
2018-12-21T04:36:04.224Z,1006.86
2018-12-21T04:37:14.174Z,1006.82
2018-12-21T04:38:23.860Z,1006.8
2018-12-21T04:39:33.074Z,1006.85
2018-12-21T04:40:43.010Z,1006.89
2018-12-21T04:41:52.950Z,1006.87
2018-12-21T04:43:02.901Z,1006.83
2018-12-21T04:44:12.832Z,1006.76
2018-12-21T04:45:22.526Z,1006.77
2018-12-21T04:46:32.480Z,1006.79
2018-12-21T04:47:41.665Z,1006.81
2018-12-21T04:48:51.388Z,1006.8
2018-12-21T04:50:01.339Z,1006.82
2018-12-21T04:51:11.268Z,1006.81
2018-12-21T04:52:20.965Z,1006.77
2018-12-21T04:53:30.930Z,1006.78
2018-12-21T04:54:40.880Z,1006.68
2018-12-21T04:55:50.334Z,1006.73
2018-12-21T04:57:00.044Z,1006.74
2018-12-21T04:58:09.766Z,1006.76
2018-12-21T04:59:19.458Z,1006.67
2018-12-21T05:00:28.888Z,1006.69
2018-12-21T05:01:38.841Z,1006.63
2018-12-21T05:02:48.541Z,1006.68
2018-12-21T05:03:58.484Z,1006.64
2018-12-21T05:05:08.517Z,1006.72
2018-12-21T05:06:18.472Z,1006.62
2018-12-21T05:07:28.183Z,1006.69
2018-12-21T05:08:37.867Z,1006.72
2018-12-21T05:09:47.807Z,1006.7
2018-12-21T05:10:57.504Z,1006.65
2018-12-21T05:12:07.322Z,1006.59
2018-12-21T05:13:17.258Z,1006.61
2018-12-21T05:14:26.938Z,1006.63
2018-12-21T05:15:36.885Z,1006.6
2018-12-21T05:16:46.819Z,1006.56
2018-12-21T05:17:56.363Z,1006.62
2018-12-21T05:19:06.067Z,1006.59
2018-12-21T05:20:16.014Z,1006.62
2018-12-21T05:21:25.225Z,1006.64
2018-12-21T05:22:34.682Z,1006.55
2018-12-21T05:23:52.622Z,1006.59
2018-12-21T05:25:03.119Z,1006.58
2018-12-21T05:26:12.806Z,1006.57
2018-12-21T05:27:22.509Z,1006.57
2018-12-21T05:28:32.434Z,1006.56
2018-12-21T05:29:42.122Z,1006.6
2018-12-21T05:30:52.083Z,1006.53
2018-12-21T05:32:01.283Z,1006.49
2018-12-21T05:33:11.225Z,1006.51
2018-12-21T05:34:20.930Z,1006.51
2018-12-21T05:35:30.879Z,1006.55
2018-12-21T05:36:40.843Z,1006.48
2018-12-21T05:37:50.786Z,1006.56
2018-12-21T05:39:00.474Z,1006.53
2018-12-21T05:40:09.910Z,1006.54
2018-12-21T05:41:19.841Z,1006.47
2018-12-21T05:42:29.796Z,1006.5
2018-12-21T05:43:39.241Z,1006.45
2018-12-21T05:44:49.180Z,1006.46
2018-12-21T05:45:59.196Z,1006.49
2018-12-21T05:47:08.890Z,1006.5
2018-12-21T05:48:18.582Z,1006.45
2018-12-21T05:49:28.519Z,1006.41
2018-12-21T05:50:37.958Z,1006.41
2018-12-21T05:51:47.899Z,1006.37
2018-12-21T05:53:00.803Z,1006.33
2018-12-21T05:54:11.030Z,1006.33
2018-12-21T05:55:20.725Z,1006.26
2018-12-21T05:56:30.172Z,1006.27
2018-12-21T05:57:40.115Z,1006.27
2018-12-21T05:58:49.172Z,1006.28
2018-12-21T05:59:59.106Z,1006.22
2018-12-21T06:01:09.041Z,1006.23
2018-12-21T06:02:18.978Z,1006.22
2018-12-21T06:03:28.996Z,1006.28
2018-12-21T06:04:38.682Z,1006.24
2018-12-21T06:05:48.382Z,1006.22
2018-12-21T06:06:58.339Z,1006.15
2018-12-21T06:08:08.275Z,1006.19
2018-12-21T06:09:18.209Z,1006.15
2018-12-21T06:10:28.164Z,1006.09
2018-12-21T06:11:37.848Z,1006.03
2018-12-21T06:12:47.300Z,1005.98
2018-12-21T06:13:56.991Z,1005.99
2018-12-21T06:15:08.696Z,1006
2018-12-21T06:16:18.641Z,1006.02
2018-12-21T06:17:28.325Z,1006
2018-12-21T06:18:37.751Z,1005.99
2018-12-21T06:19:47.746Z,1005.92
2018-12-21T06:20:57.187Z,1005.92
2018-12-21T06:22:07.142Z,1005.89
2018-12-21T06:23:17.081Z,1005.88
2018-12-21T06:24:26.769Z,1005.89
2018-12-21T06:25:36.456Z,1005.85
2018-12-21T06:26:46.154Z,1005.81
2018-12-21T06:27:55.939Z,1005.77
2018-12-21T06:29:05.389Z,1005.8
2018-12-21T06:30:14.831Z,1005.72
2018-12-21T06:31:24.794Z,1005.72
2018-12-21T06:32:34.731Z,1005.72
2018-12-21T06:33:45.097Z,1005.65
2018-12-21T06:34:54.792Z,1005.64
2018-12-21T06:36:04.499Z,1005.58
2018-12-21T06:37:14.549Z,1005.6
2018-12-21T06:38:24.515Z,1005.57
2018-12-21T06:39:34.216Z,1005.54
2018-12-21T06:40:44.150Z,1005.5
2018-12-21T06:41:54.169Z,1005.53
2018-12-21T06:43:03.863Z,1005.5
2018-12-21T06:44:13.698Z,1005.48
2018-12-21T06:45:23.386Z,1005.46
2018-12-21T06:46:32.821Z,1005.48
2018-12-21T06:47:42.535Z,1005.46
2018-12-21T06:48:52.219Z,1005.39
2018-12-21T06:50:01.919Z,1005.44
2018-12-21T06:51:11.875Z,1005.46
2018-12-21T06:52:21.812Z,1005.44
2018-12-21T06:53:31.525Z,1005.44
2018-12-21T06:54:41.451Z,1005.43
2018-12-21T06:55:51.402Z,1005.37
2018-12-21T06:57:01.340Z,1005.41
2018-12-21T06:58:11.052Z,1005.37
2018-12-21T06:59:20.809Z,1005.32
2018-12-21T07:00:30.502Z,1005.4
2018-12-21T07:01:39.933Z,1005.34
2018-12-21T07:02:49.851Z,1005.35
2018-12-21T07:03:59.110Z,1005.31
2018-12-21T07:05:08.806Z,1005.33
2018-12-21T07:06:18.247Z,1005.34
2018-12-21T07:07:28.191Z,1005.32
2018-12-21T07:08:38.142Z,1005.29
2018-12-21T07:09:47.821Z,1005.32
2018-12-21T07:10:57.519Z,1005.32
2018-12-21T07:12:07.001Z,1005.31
2018-12-21T07:13:16.950Z,1005.27
2018-12-21T07:14:26.638Z,1005.26
2018-12-21T07:15:36.349Z,1005.27
2018-12-21T07:16:46.051Z,1005.23
2018-12-21T07:17:56.024Z,1005.29
2018-12-21T07:19:05.977Z,1005.27
2018-12-21T07:20:15.959Z,1005.26
2018-12-21T07:21:25.431Z,1005.21
2018-12-21T07:22:34.634Z,1005.15
2018-12-21T07:23:44.339Z,1005.16
2018-12-21T07:24:54.127Z,1005.17
2018-12-21T07:26:04.089Z,1005.15
2018-12-21T07:27:14.187Z,1005.1
2018-12-21T07:28:24.153Z,1005.06
2018-12-21T07:29:34.109Z,1005.15
2018-12-21T07:30:43.320Z,1005.1
2018-12-21T07:31:53.266Z,1005.12
2018-12-21T07:33:02.986Z,1005.09
2018-12-21T07:34:12.958Z,1005.04
2018-12-21T07:35:22.914Z,1005.06
2018-12-21T07:36:32.888Z,1005.11
2018-12-21T07:37:42.841Z,1005.08
2018-12-21T07:38:52.807Z,1005.05
2018-12-21T07:40:02.266Z,1005.04
2018-12-21T07:41:12.247Z,1005.03
2018-12-21T07:42:21.815Z,1005.05
2018-12-21T07:43:31.845Z,1005.04
2018-12-21T07:44:41.537Z,1005.02
2018-12-21T07:45:51.497Z,1005.04
2018-12-21T07:47:01.469Z,1005
2018-12-21T07:48:10.927Z,1004.99
2018-12-21T07:49:20.641Z,1004.96
2018-12-21T07:50:30.617Z,1004.97
2018-12-21T07:51:40.650Z,1004.88
2018-12-21T07:52:50.364Z,1004.93
2018-12-21T07:54:01.028Z,1004.94
2018-12-21T07:55:10.521Z,1004.93
2018-12-21T07:56:20.485Z,1004.91
2018-12-21T07:57:30.198Z,1004.95
2018-12-21T07:58:39.911Z,1004.9
2018-12-21T07:59:57.543Z,1004.92
2018-12-21T08:01:07.496Z,1004.9
2018-12-21T08:02:17.211Z,1004.91
2018-12-21T08:03:27.188Z,1004.9
2018-12-21T08:04:37.256Z,1004.9
2018-12-21T08:05:47.220Z,1004.83
2018-12-21T08:06:57.177Z,1004.87
2018-12-21T08:08:07.135Z,1004.87
2018-12-21T08:09:17.110Z,1004.83
2018-12-21T08:10:26.807Z,1004.78
2018-12-21T08:11:36.786Z,1004.79
2018-12-21T08:12:46.733Z,1004.78
2018-12-21T08:13:56.691Z,1004.76
2018-12-21T08:15:06.620Z,1004.78
2018-12-21T08:16:16.311Z,1004.76
2018-12-21T08:17:26.259Z,1004.75
2018-12-21T08:18:36.250Z,1004.71
2018-12-21T08:19:45.690Z,1004.73
2018-12-21T08:20:55.654Z,1004.72
2018-12-21T08:22:05.229Z,1004.72
2018-12-21T08:23:14.932Z,1004.72
2018-12-21T08:24:24.865Z,1004.7
2018-12-21T08:25:34.817Z,1004.67
2018-12-21T08:26:44.512Z,1004.65
2018-12-21T08:27:54.548Z,1004.61
2018-12-21T08:29:04.500Z,1004.55
2018-12-21T08:30:13.956Z,1004.55
2018-12-21T08:31:23.912Z,1004.54
2018-12-21T08:32:33.608Z,1004.57
2018-12-21T08:33:43.315Z,1004.49
2018-12-21T08:34:53.256Z,1004.49
2018-12-21T08:36:03.197Z,1004.39
2018-12-21T08:37:13.152Z,1004.41
2018-12-21T08:38:23.107Z,1004.4
2018-12-21T08:39:33.290Z,1004.38
2018-12-21T08:40:43.244Z,1004.37
2018-12-21T08:41:52.689Z,1004.35
2018-12-21T08:43:02.134Z,1004.32
2018-12-21T08:44:12.104Z,1004.28
2018-12-21T08:45:21.814Z,1004.27
2018-12-21T08:46:31.750Z,1004.23
2018-12-21T08:47:41.444Z,1004.19
2018-12-21T08:48:52.798Z,1004.24
2018-12-21T08:50:02.889Z,1004.21
2018-12-21T08:51:12.832Z,1004.21
2018-12-21T08:52:22.774Z,1004.21
2018-12-21T08:53:32.718Z,1004.13
2018-12-21T08:54:42.672Z,1004.16
2018-12-21T08:55:52.610Z,1004.13
2018-12-21T08:57:02.570Z,1004.1
2018-12-21T08:58:12.054Z,1004.11
2018-12-21T08:59:21.756Z,1004.07
2018-12-21T09:00:31.806Z,1004.1
2018-12-21T09:01:41.768Z,1004.1
2018-12-21T09:02:51.715Z,1004.1
2018-12-21T09:04:01.446Z,1004.1
2018-12-21T09:05:11.172Z,1004.02
2018-12-21T09:06:21.131Z,1004.03
2018-12-21T09:07:31.080Z,1004.05
2018-12-21T09:08:42.490Z,1004.02
2018-12-21T09:09:52.211Z,1004
2018-12-21T09:11:02.188Z,1003.99
2018-12-21T09:12:11.640Z,1003.95
2018-12-21T09:13:21.717Z,1003.94
2018-12-21T09:14:31.418Z,1003.98
2018-12-21T09:15:41.423Z,1003.96
2018-12-21T09:16:51.399Z,1003.95
2018-12-21T09:18:01.374Z,1003.91
2018-12-21T09:19:11.133Z,1003.87
2018-12-21T09:20:21.101Z,1003.91
2018-12-21T09:21:31.051Z,1003.9
2018-12-21T09:22:41.020Z,1003.81
2018-12-21T09:23:50.979Z,1003.84
2018-12-21T09:25:08.390Z,1003.82
2018-12-21T09:26:18.099Z,1003.8
2018-12-21T09:27:28.068Z,1003.83
2018-12-21T09:28:38.007Z,1003.8
2018-12-21T09:29:47.971Z,1003.73
2018-12-21T09:30:57.679Z,1003.76
2018-12-21T09:32:07.642Z,1003.69
2018-12-21T09:33:17.383Z,1003.67
2018-12-21T09:34:27.381Z,1003.64
2018-12-21T09:35:37.348Z,1003.68
2018-12-21T09:36:47.290Z,1003.59
2018-12-21T09:37:57.255Z,1003.53
2018-12-21T09:39:07.239Z,1003.59
2018-12-21T09:40:17.176Z,1003.54
2018-12-21T09:41:27.128Z,1003.53
2018-12-21T09:42:37.091Z,1003.47
2018-12-21T09:43:47.053Z,1003.46
2018-12-21T09:44:57.027Z,1003.45
2018-12-21T09:46:07.209Z,1003.44
2018-12-21T09:47:16.929Z,1003.47
2018-12-21T09:48:26.871Z,1003.45
2018-12-21T09:49:36.837Z,1003.44
2018-12-21T09:50:46.563Z,1003.38
2018-12-21T09:51:56.532Z,1003.36
2018-12-21T09:53:06.259Z,1003.29
2018-12-21T09:54:16.207Z,1003.27
2018-12-21T09:55:26.197Z,1003.33
2018-12-21T09:56:36.195Z,1003.28
2018-12-21T09:57:45.641Z,1003.25
2018-12-21T09:58:55.616Z,1003.22
2018-12-21T10:00:05.577Z,1003.19
2018-12-21T10:01:15.522Z,1003.14
2018-12-21T10:02:25.536Z,1003.16
2018-12-21T10:03:42.782Z,1003.1
2018-12-21T10:04:52.739Z,1003.05
2018-12-21T10:06:02.187Z,1003.03
2018-12-21T10:07:11.929Z,1003.03
2018-12-21T10:08:30.339Z,1002.99
2018-12-21T10:09:40.401Z,1002.96
2018-12-21T10:10:50.641Z,1002.92
2018-12-21T10:12:00.434Z,1002.89
2018-12-21T10:13:10.391Z,1002.84
2018-12-21T10:14:20.354Z,1002.84
2018-12-21T10:15:30.068Z,1002.83
2018-12-21T10:16:40.039Z,1002.82
2018-12-21T10:17:49.995Z,1002.83
2018-12-21T10:18:59.445Z,1002.71
2018-12-21T10:20:09.142Z,1002.64
2018-12-21T10:21:22.809Z,1002.56
2018-12-21T10:22:32.753Z,1002.57
2018-12-21T10:23:42.463Z,1002.62
2018-12-21T10:24:54.159Z,1002.54
2018-12-21T10:26:03.934Z,1002.55
2018-12-21T10:27:13.900Z,1002.54
2018-12-21T10:28:23.864Z,1002.49
2018-12-21T10:29:33.579Z,1002.5
2018-12-21T10:30:43.534Z,1002.44
2018-12-21T10:31:52.979Z,1002.39
2018-12-21T10:33:04.352Z,1002.4
2018-12-21T10:34:14.045Z,1002.38
2018-12-21T10:35:23.255Z,1002.34
2018-12-21T10:36:32.970Z,1002.31
2018-12-21T10:37:42.991Z,1002.26
2018-12-21T10:38:52.968Z,1002.22
2018-12-21T10:40:02.682Z,1002.16
2018-12-21T10:41:12.661Z,1002.14
2018-12-21T10:42:22.629Z,1002.11
2018-12-21T10:43:34.574Z,1002.08
2018-12-21T10:44:44.150Z,1001.95
2018-12-21T10:45:54.095Z,1001.98
2018-12-21T10:47:04.078Z,1001.95
2018-12-21T10:48:13.778Z,1001.85
2018-12-21T10:49:23.732Z,1001.84
2018-12-21T10:50:37.193Z,1001.86
2018-12-21T10:51:46.887Z,1001.86
2018-12-21T10:52:56.848Z,1001.76
2018-12-21T10:54:06.322Z,1001.75
2018-12-21T10:55:16.011Z,1001.71
2018-12-21T10:56:25.716Z,1001.64
2018-12-21T10:57:35.425Z,1001.58
2018-12-21T10:58:45.373Z,1001.54
2018-12-21T10:59:57.614Z,1001.5
2018-12-21T11:01:07.574Z,1001.49
2018-12-21T11:02:17.518Z,1001.54
2018-12-21T11:03:27.482Z,1001.49
2018-12-21T11:04:37.318Z,1001.5
2018-12-21T11:05:47.086Z,1001.43
2018-12-21T11:06:57.018Z,1001.41
2018-12-21T11:08:06.219Z,1001.35
2018-12-21T11:09:15.955Z,1001.34
2018-12-21T11:10:25.676Z,1001.29
2018-12-21T11:11:35.866Z,1001.29
2018-12-21T11:12:45.816Z,1001.23
2018-12-21T11:13:55.782Z,1001.18
2018-12-21T11:15:05.591Z,1001.18
2018-12-21T11:16:15.586Z,1001.18
2018-12-21T11:17:25.528Z,1001.2
2018-12-21T11:18:35.226Z,1001.16
2018-12-21T11:19:44.666Z,1001.15
2018-12-21T11:20:54.380Z,1001.08
2018-12-21T11:22:04.408Z,1000.98
2018-12-21T11:23:13.865Z,1000.98
2018-12-21T11:24:23.924Z,1000.9
2018-12-21T11:25:40.859Z,1000.89
2018-12-21T11:26:50.839Z,1000.93
2018-12-21T11:28:00.804Z,1000.87
2018-12-21T11:29:10.519Z,1000.86
2018-12-21T11:30:20.494Z,1000.86
2018-12-21T11:31:30.461Z,1000.76
2018-12-21T11:32:40.420Z,1000.7
2018-12-21T11:33:50.361Z,1000.64
2018-12-21T11:35:00.317Z,1000.57
2018-12-21T11:36:10.040Z,1000.56
2018-12-21T11:37:19.745Z,1000.57
2018-12-21T11:38:29.445Z,1000.55
2018-12-21T11:39:39.144Z,1000.56
2018-12-21T11:40:49.111Z,1000.4
2018-12-21T11:41:59.080Z,1000.49
2018-12-21T11:43:09.021Z,1000.43
2018-12-21T11:44:18.958Z,1000.38
2018-12-21T11:45:28.925Z,1000.29
2018-12-21T11:46:38.884Z,1000.3
2018-12-21T11:47:48.650Z,1000.26
2018-12-21T11:48:58.370Z,1000.15
2018-12-21T11:50:08.321Z,1000.14
2018-12-21T11:51:18.501Z,1000.06
2018-12-21T11:52:28.209Z,1000.06
2018-12-21T11:53:38.188Z,1000.03
2018-12-21T11:54:48.114Z,1000.04
2018-12-21T11:55:59.582Z,999.98
2018-12-21T11:57:09.625Z,1000.03
2018-12-21T11:58:19.317Z,999.98
2018-12-21T11:59:29.025Z,999.98
2018-12-21T12:00:47.662Z,999.89
2018-12-21T12:01:57.623Z,999.82
2018-12-21T12:03:07.316Z,999.75
2018-12-21T12:04:17.249Z,999.77
2018-12-21T12:05:27.194Z,999.77
2018-12-21T12:06:37.144Z,999.72
2018-12-21T12:07:47.103Z,999.77
2018-12-21T12:08:57.051Z,999.66
2018-12-21T12:10:13.668Z,999.66
2018-12-21T12:11:23.607Z,999.61
2018-12-21T12:12:33.583Z,999.57
2018-12-21T12:13:44.647Z,999.53
2018-12-21T12:14:54.632Z,999.55
2018-12-21T12:16:04.581Z,999.53
2018-12-21T12:17:14.536Z,999.54
2018-12-21T12:18:24.250Z,999.55
2018-12-21T12:19:34.194Z,999.59
2018-12-21T12:20:43.646Z,999.57
2018-12-21T12:21:53.345Z,999.51
2018-12-21T12:23:03.060Z,999.5
2018-12-21T12:24:12.768Z,999.48
2018-12-21T12:25:22.449Z,999.5
2018-12-21T12:26:32.411Z,999.47
2018-12-21T12:27:49.674Z,999.52
2018-12-21T12:28:59.377Z,999.48
2018-12-21T12:30:09.351Z,999.41
2018-12-21T12:31:19.305Z,999.38
2018-12-21T12:32:29.527Z,999.34
2018-12-21T12:33:39.233Z,999.32
2018-12-21T12:34:48.938Z,999.27
2018-12-21T12:35:58.866Z,999.25
2018-12-21T12:37:08.561Z,999.3
2018-12-21T12:38:18.511Z,999.27
2018-12-21T12:39:28.466Z,999.23
2018-12-21T12:40:38.163Z,999.24
2018-12-21T12:41:48.099Z,999.24
2018-12-21T12:42:58.042Z,999.19
2018-12-21T12:44:07.489Z,999.16
2018-12-21T12:45:17.445Z,999.16
2018-12-21T12:46:27.390Z,999.14
2018-12-21T12:47:37.412Z,999.07
2018-12-21T12:48:47.102Z,999.12
2018-12-21T12:49:56.804Z,999.06
2018-12-21T12:51:06.490Z,999.01
2018-12-21T12:52:15.938Z,998.99
2018-12-21T12:53:25.374Z,998.96
2018-12-21T12:54:35.330Z,998.93
2018-12-21T12:55:45.286Z,998.89
2018-12-21T12:56:55.246Z,998.91
2018-12-21T12:58:04.947Z,998.8
2018-12-21T12:59:14.909Z,998.86
2018-12-21T13:00:24.879Z,998.79
2018-12-21T13:01:34.595Z,998.83
2018-12-21T13:02:44.636Z,998.8
2018-12-21T13:03:54.095Z,998.73
2018-12-21T13:05:03.799Z,998.72
2018-12-21T13:06:13.759Z,998.7
2018-12-21T13:07:23.190Z,998.66
2018-12-21T13:08:33.179Z,998.68
2018-12-21T13:09:44.007Z,998.58
2018-12-21T13:10:53.954Z,998.56
2018-12-21T13:12:03.667Z,998.49
2018-12-21T13:13:13.635Z,998.46
2018-12-21T13:14:23.470Z,998.45
2018-12-21T13:15:33.238Z,998.41
2018-12-21T13:16:43.184Z,998.39
2018-12-21T13:17:52.882Z,998.36
2018-12-21T13:19:02.594Z,998.34
2018-12-21T13:20:12.543Z,998.3
2018-12-21T13:21:22.226Z,998.26
2018-12-21T13:22:31.937Z,998.24
2018-12-21T13:23:41.890Z,998.19
2018-12-21T13:24:51.586Z,998.2
2018-12-21T13:26:01.541Z,998.22
2018-12-21T13:27:11.241Z,998.16
2018-12-21T13:28:20.957Z,998.15
2018-12-21T13:29:30.919Z,998.07
2018-12-21T13:30:40.853Z,998.05
2018-12-21T13:31:50.830Z,998.01
2018-12-21T13:33:00.787Z,997.94
2018-12-21T13:34:10.736Z,997.91
2018-12-21T13:35:20.690Z,997.86
2018-12-21T13:36:30.391Z,997.76
2018-12-21T13:37:41.883Z,997.73
2018-12-21T13:38:51.568Z,997.71
2018-12-21T13:40:01.525Z,997.73
2018-12-21T13:41:11.459Z,997.7
2018-12-21T13:42:21.134Z,997.6
2018-12-21T13:43:32.136Z,997.56
2018-12-21T13:44:42.098Z,997.52
2018-12-21T13:45:51.797Z,997.44
2018-12-21T13:47:01.749Z,997.39
2018-12-21T13:48:11.197Z,997.41
2018-12-21T13:49:21.142Z,997.35
2018-12-21T13:50:31.095Z,997.31
2018-12-21T13:51:41.048Z,997.29
2018-12-21T13:52:50.749Z,997.36
2018-12-21T13:54:00.712Z,997.27
2018-12-21T13:55:10.414Z,997.26
2018-12-21T13:56:28.167Z,997.19
2018-12-21T13:57:38.108Z,997.2
2018-12-21T13:58:47.811Z,997.21
2018-12-21T13:59:57.765Z,997.21
2018-12-21T14:01:07.506Z,997.2
2018-12-21T14:02:17.457Z,997.23
2018-12-21T14:03:27.408Z,997.26
2018-12-21T14:04:37.108Z,997.17
2018-12-21T14:05:46.811Z,997.16
2018-12-21T14:06:56.768Z,997.13
2018-12-21T14:08:06.712Z,997.08
2018-12-21T14:09:16.146Z,997.07
2018-12-21T14:10:27.006Z,997.07
2018-12-21T14:11:36.448Z,997.12
2018-12-21T14:12:46.388Z,997.08
2018-12-21T14:13:56.338Z,997.04